»·PEaware :: N5756Q KOXR-KOXR

N5756Q :: KOXR-KOXR

FLIGHT INFORMATION

Flight Status: Arrived
Operator: Privately registered:
United States
More flights under this callsign
Pilot: Juan D. (11620)
Aircraft: MOONEY M-20 201 202 205 220 ATS MSE
(M20P)
More flights by this aircraft type
Origin: KOXR Oxnard
United States
Destination: KOXR Oxnard
United States
More flights between these airports :: More routes between these airports
Route: VTU
File this flight plan on PilotEdge
Remarks: Request vectors ILS 25 back to OXR
Altitude:
(Current/Filed)
4,000ft
Speed:
(Current/Filed)
160kts
Departed: 17-Sep-20 05:14 PM
Arrived: 17-Sep-20 05:43 PM
Distance/Time
Traveled:
0nm/0:29
Distance/Time
To Go:
Arrived

Flight Plot

Page will automatically refresh every two minutes.


Map Options




Map Legend


Flown Route
Filed Route
Departure Airport
Arrival Airport
Navaid (VOR, NDB)
Fix

Horizontal Profiles

Position Reports

Time Latitude Longitude Heading Altitude Ground
Speed
17-Sep-20 17:05 34.198999 -119.197763 269 46ft 0kts
17-Sep-20 17:06 34.198999 -119.197763 269 46ft 0kts
17-Sep-20 17:07 34.198999 -119.197763 269 46ft 0kts
17-Sep-20 17:08 34.198999 -119.197763 269 46ft 0kts
17-Sep-20 17:09 34.198999 -119.197763 269 46ft 0kts
17-Sep-20 17:10 34.198999 -119.197763 269 46ft 0kts
17-Sep-20 17:11 34.199717 -119.197556 5 47ft 9kts
17-Sep-20 17:12 34.199843 -119.197544 4 47ft 0kts
17-Sep-20 17:13 34.200752 -119.201349 270 45ft 66kts
17-Sep-20 17:14 34.200200 -119.230600 268 477ft 115kts
17-Sep-20 17:15 34.198110 -119.272530 268 1097ft 132kts
17-Sep-20 17:16 34.196057 -119.317878 268 1699ft 138kts
17-Sep-20 17:17 34.194010 -119.364543 268 2299ft 139kts
17-Sep-20 17:18 34.196217 -119.409782 322 2899ft 137kts
17-Sep-20 17:19 34.222224 -119.384225 61 3530ft 144kts
17-Sep-20 17:20 34.240264 -119.340422 61 4006ft 153kts
17-Sep-20 17:21 34.261017 -119.290623 61 4010ft 174kts
17-Sep-20 17:22 34.267253 -119.232614 92 4009ft 182kts
17-Sep-20 17:23 34.265647 -119.171024 91 4004ft 184kts
17-Sep-20 17:24 34.264419 -119.108999 91 4002ft 184kts
17-Sep-20 17:25 34.263512 -119.047208 91 3999ft 183kts
17-Sep-20 17:26 34.262889 -118.985366 91 3999ft 183kts
17-Sep-20 17:27 34.262579 -118.923802 91 3999ft 183kts
17-Sep-20 17:28 34.262591 -118.862150 91 3999ft 183kts
17-Sep-20 17:29 34.252949 -118.806884 166 4012ft 172kts
17-Sep-20 17:30 34.211831 -118.809797 237 4011ft 152kts
17-Sep-20 17:31 34.200403 -118.857997 262 3999ft 148kts
17-Sep-20 17:32 34.198292 -118.906447 271 3786ft 140kts
17-Sep-20 17:33 34.199100 -118.952417 268 3421ft 126kts
17-Sep-20 17:34 34.199300 -118.990845 269 3389ft 104kts
17-Sep-20 17:35 34.199393 -119.028766 269 2963ft 120kts
17-Sep-20 17:36 34.199371 -119.065429 269 2671ft 92kts
17-Sep-20 17:37 34.199363 -119.095942 269 1967ft 88kts
17-Sep-20 17:38 34.199595 -119.124414 273 1253ft 82kts
17-Sep-20 17:39 34.200667 -119.149980 270 730ft 74kts
17-Sep-20 17:40 34.200441 -119.172744 269 455ft 64kts
17-Sep-20 17:42 34.200662 -119.194337 272 139ft 61kts
17-Sep-20 17:43 34.199778 -119.202385 91 43ft 12kts
17-Sep-20 17:44 34.198962 -119.198557 91 46ft 0kts
17-Sep-20 17:45 34.198962 -119.198557 91 46ft 0kts
17-Sep-20 17:46 34.198962 -119.198557 91 46ft 0kts
17-Sep-20 17:47 34.198962 -119.198557 91 46ft 0kts
17-Sep-20 17:48 34.198962 -119.198557 91 46ft 0kts
17-Sep-20 17:49 34.198962 -119.198557 91 46ft 0kts
17-Sep-20 17:50 34.198962 -119.198557 91 46ft 0kts
17-Sep-20 17:51 34.198962 -119.198557 91 46ft 0kts
17-Sep-20 17:52 34.198962 -119.198557 91 46ft 0kts
17-Sep-20 17:53 34.198962 -119.198557 91 46ft 0kts
17-Sep-20 17:54 34.198962 -119.198557 91 46ft 0kts
17-Sep-20 17:55 34.198962 -119.198557 91 46ft 0kts
17-Sep-20 17:55 34.198962 -119.198557 91 46ft 0kts

Navigation Log

Ident Type
Flight plan parsing failed, navigation log unavailable